Time;durP1;ratioP1;P1;durP2;ratioP2;P2;SDS_P1;SDS_P2;PMS_P1;PMS_P2;Temp;Humidity;BMP_temperature;BMP_pressure;BME280_temperature;BME280_humidity;BME280_pressure;Samples;Min_cycle;Max_cycle;Signal;HPM_P1;HPM_P2
2021/04/15 00:00:26;;;;;;;5.57;2.30;;;;;;;5.55;62.54;100968.41;5033956;27;101303;-74
2021/04/15 00:02:51;;;;;;;4.47;2.30;;;;;;;5.54;62.81;100967.53;5032864;27;100909;-74
2021/04/15 00:05:26;;;;;;;4.07;2.20;;;;;;;5.54;63.39;100967.53;5051615;27;96835;-75
2021/04/15 00:07:52;;;;;;;4.73;1.97;;;;;;;5.51;63.02;100959.75;5041472;27;96704;-75
2021/04/15 00:10:18;;;;;;;3.53;1.70;;;;;;;5.48;62.54;100951.09;5071713;27;97976;-75
2021/04/15 00:12:44;;;;;;;2.50;1.63;;;;;;;5.46;63.02;100956.28;5071238;27;98011;-75
2021/04/15 00:15:11;;;;;;;4.30;2.07;;;;;;;5.42;63.12;100954.56;5050919;27;97265;-75
2021/04/15 00:17:37;;;;;;;2.53;1.60;;;;;;;5.35;63.59;100958.94;5057971;27;96804;-75
2021/04/15 00:20:05;;;;;;;6.77;2.17;;;;;;;5.35;63.38;100952.84;5050303;27;98741;-73
2021/04/15 00:22:30;;;;;;;3.30;1.80;;;;;;;5.40;63.21;100949.34;5057924;27;97317;-73
2021/04/15 00:24:59;;;;;;;3.40;1.90;;;;;;;5.38;63.38;100956.31;5070871;27;97090;-78
2021/04/15 00:27:24;;;;;;;4.50;2.00;;;;;;;5.38;63.45;100952.81;5054903;27;96883;-73
2021/04/15 00:29:50;;;;;;;3.80;2.10;;;;;;;5.40;63.36;100943.28;5070156;27;98016;-73
2021/04/15 00:32:15;;;;;;;5.60;2.40;;;;;;;5.38;63.75;100951.13;5047888;27;97334;-73
2021/04/15 00:34:41;;;;;;;4.07;2.33;;;;;;;5.42;63.55;100951.97;5047545;27;96815;-82
2021/04/15 00:37:06;;;;;;;4.13;2.30;;;;;;;5.34;63.74;100946.75;5037372;27;97042;-73
2021/04/15 00:39:32;;;;;;;3.60;2.10;;;;;;;5.37;62.84;100945.91;5023005;27;101092;-74
2021/04/15 00:41:58;;;;;;;4.50;2.13;;;;;;;5.35;63.99;100948.53;5049767;27;98096;-73
2021/04/15 00:44:23;;;;;;;5.40;2.63;;;;;;;5.34;63.54;100941.56;5065122;27;96789;-73
2021/04/15 00:46:54;;;;;;;3.73;1.70;;;;;;;5.37;63.44;100943.28;5049433;27;97084;-73
2021/04/15 00:49:48;;;;;;;5.20;2.00;;;;;;;5.36;63.72;100945.03;5051072;27;97729;-73
2021/04/15 00:52:19;;;;;;;4.73;2.50;;;;;;;5.42;63.72;100947.63;5050425;27;101192;-73
2021/04/15 00:54:48;;;;;;;4.22;2.13;;;;;;;5.39;63.94;100942.41;5033564;27;96881;-73
2021/04/15 00:57:17;;;;;;;7.30;2.20;;;;;;;5.37;63.68;100940.69;5047076;27;97260;-73
2021/04/15 00:59:43;;;;;;;3.63;2.13;;;;;;;5.35;63.74;100953.72;5045888;27;101073;-80
2021/04/15 01:02:11;;;;;;;4.73;2.30;;;;;;;5.36;63.84;100947.63;5026801;27;101014;-76
2021/04/15 01:04:37;;;;;;;3.40;2.43;;;;;;;5.37;64.09;100943.28;5050219;27;97635;-73
2021/04/15 01:07:04;;;;;;;7.07;2.20;;;;;;;5.36;64.12;100945.03;5043844;27;97192;-74
2021/04/15 01:09:29;;;;;;;4.37;2.37;;;;;;;5.41;63.62;100940.69;5055807;27;98069;-74
2021/04/15 01:12:03;;;;;;;3.83;2.30;;;;;;;5.26;64.39;100939.84;5053503;27;101170;-75
2021/04/15 01:14:53;;;;;;;3.33;2.03;;;;;;;5.34;63.79;100932.88;5054020;27;96986;-73
2021/04/15 01:17:28;;;;;;;3.20;2.10;;;;;;;5.33;63.92;100933.78;5072778;27;97150;-74
2021/04/15 01:20:06;;;;;;;4.63;2.57;;;;;;;5.31;63.69;100938.09;5053389;27;98177;-74
2021/04/15 01:23:08;;;;;;;4.37;2.20;;;;;;;5.22;64.00;100929.44;5044871;27;101605;-74
2021/04/15 01:25:49;;;;;;;4.38;2.58;;;;;;;5.18;64.20;100926.88;5057732;27;97190;-74
2021/04/15 01:28:35;;;;;;;4.53;2.47;;;;;;;5.20;64.14;100925.09;5074650;27;96953;-74
2021/04/15 01:31:10;;;;;;;3.50;2.30;;;;;;;5.28;64.48;100920.75;5072146;27;101123;-74
2021/04/15 01:34:00;;;;;;;6.03;2.60;;;;;;;5.32;64.13;100919.00;5074442;27;97899;-73
2021/04/15 01:36:32;;;;;;;4.13;2.40;;;;;;;5.34;64.42;100919.88;5038933;27;96762;-76
2021/04/15 01:39:05;;;;;;;6.00;2.20;;;;;;;5.27;64.67;100918.16;5073301;27;96913;-75
2021/04/15 01:41:39;;;;;;;5.17;2.07;;;;;;;5.20;64.68;100910.34;5040186;27;101128;-74
2021/04/15 01:44:09;;;;;;;5.17;2.17;;;;;;;5.21;64.52;100914.72;5056807;27;97859;-74
2021/04/15 01:46:36;;;;;;;3.43;2.23;;;;;;;5.20;65.06;100915.56;5056930;27;97426;-74
2021/04/15 01:49:06;;;;;;;3.40;2.33;;;;;;;5.19;65.02;100908.63;5043777;27;97410;-74
2021/04/15 01:51:35;;;;;;;4.53;2.67;;;;;;;5.19;65.32;100910.38;5073309;27;97980;-74
2021/04/15 01:54:18;;;;;;;4.77;2.63;;;;;;;5.10;65.69;100910.41;5052742;27;101446;-74
2021/04/15 01:57:05;;;;;;;3.53;2.30;;;;;;;5.01;65.89;100900.88;5061867;27;96646;-79
2021/04/15 02:00:03;;;;;;;4.30;2.77;;;;;;;4.98;66.58;100900.88;5052675;27;96806;-74
2021/04/15 02:02:42;;;;;;;4.67;3.00;;;;;;;5.01;66.43;100902.63;5034761;27;97891;-74
2021/04/15 02:05:11;;;;;;;4.70;2.90;;;;;;;4.98;66.49;100904.34;5052696;27;101283;-74
2021/04/15 02:07:41;;;;;;;4.33;2.73;;;;;;;4.98;66.93;100901.75;5071819;27;97166;-78
2021/04/15 02:10:09;;;;;;;8.70;2.80;;;;;;;5.03;66.64;100903.47;5069611;27;97408;-74
2021/04/15 02:12:36;;;;;;;4.97;3.40;;;;;;;4.94;67.07;100900.00;5055236;27;98127;-75
2021/04/15 02:15:07;;;;;;;6.23;2.80;;;;;;;4.98;67.07;100906.09;5035323;27;101339;-74
2021/04/15 02:17:36;;;;;;;4.90;2.90;;;;;;;4.90;67.40;100902.63;5038934;27;96895;-74
2021/04/15 02:20:06;;;;;;;7.30;3.17;;;;;;;4.95;67.42;100906.94;5051759;27;96815;-74
2021/04/15 02:23:09;;;;;;;7.17;3.03;;;;;;;4.93;67.56;100903.47;5053446;27;97983;-74
2021/04/15 02:25:48;;;;;;;4.77;3.07;;;;;;;4.91;67.85;100904.34;5062119;27;98005;-73
2021/04/15 02:28:21;;;;;;;5.03;3.17;;;;;;;4.83;67.92;100914.78;5056504;27;96914;-73
2021/04/15 02:30:51;;;;;;;8.77;3.73;;;;;;;4.82;68.20;100914.78;5080293;27;97351;-79
2021/04/15 02:33:21;;;;;;;5.90;2.63;;;;;;;4.80;68.20;100909.59;5040948;27;101249;-74
2021/04/15 02:35:50;;;;;;;7.70;3.83;;;;;;;4.78;68.36;100902.66;5055566;27;97618;-79
2021/04/15 02:38:23;;;;;;;8.37;3.70;;;;;;;4.83;68.30;100909.56;5073104;27;97090;-74
2021/04/15 02:40:53;;;;;;;5.80;3.70;;;;;;;4.79;68.53;100910.44;5044977;27;96847;-74
2021/04/15 02:43:30;;;;;;;9.50;3.83;;;;;;;4.76;68.68;100905.22;5071090;27;98440;-74
2021/04/15 02:45:56;;;;;;;4.97;3.17;;;;;;;4.73;68.49;100903.50;5034340;27;101566;-75
2021/04/15 02:48:30;;;;;;;6.63;3.93;;;;;;;4.73;68.77;100900.03;5054263;27;98205;-74
2021/04/15 02:50:59;;;;;;;6.60;4.13;;;;;;;4.60;68.96;100891.38;5049246;27;97867;-76
2021/04/15 02:53:27;;;;;;;6.97;3.83;;;;;;;4.65;68.59;100896.56;5067392;27;97994;-74
2021/04/15 02:55:57;;;;;;;7.97;4.80;;;;;;;4.65;68.06;100899.16;5054367;27;101764;-75
2021/04/15 02:58:32;;;;;;;6.77;4.43;;;;;;;4.68;68.10;100902.66;5073240;27;96625;-73
2021/04/15 03:00:58;;;;;;;9.17;4.93;;;;;;;4.69;67.28;100901.78;5072272;27;96884;-74
2021/04/15 03:03:27;;;;;;;7.90;4.90;;;;;;;4.68;67.52;100902.66;5055917;27;97845;-73
2021/04/15 03:05:54;;;;;;;8.23;4.93;;;;;;;4.62;67.53;100901.78;5055443;27;98434;-74
2021/04/15 03:08:23;;;;;;;8.03;4.40;;;;;;;4.53;67.57;100894.84;5055400;27;96976;-74
2021/04/15 03:10:59;;;;;;;8.93;4.47;;;;;;;4.64;66.94;100900.03;5032715;27;98045;-79
2021/04/15 03:13:39;;;;;;;9.00;4.93;;;;;;;4.64;67.41;100902.66;5017116;27;101900;-74
2021/04/15 03:16:06;;;;;;;6.67;4.17;;;;;;;4.65;67.32;100900.03;5070782;27;97414;-74
2021/04/15 03:18:48;;;;;;;7.40;4.30;;;;;;;4.63;66.97;100899.19;5053269;27;96706;-74
2021/04/15 03:21:31;;;;;;;7.57;4.50;;;;;;;4.57;67.47;100894.00;5052336;27;97317;-74
2021/04/15 03:24:01;;;;;;;8.50;4.20;;;;;;;4.61;66.94;100898.31;5050518;27;100018;-74
2021/04/15 03:26:32;;;;;;;8.97;5.10;;;;;;;4.63;67.03;100901.78;5048493;27;101445;-74
2021/04/15 03:29:10;;;;;;;8.27;5.33;;;;;;;4.63;66.64;100904.38;5071284;27;97118;-74
2021/04/15 03:31:42;;;;;;;8.33;4.20;;;;;;;4.70;66.75;100898.31;5041230;27;97228;-73
2021/04/15 03:34:14;;;;;;;7.07;4.38;;;;;;;4.54;66.37;100900.06;5041959;27;101699;-74
2021/04/15 03:36:42;;;;;;;8.73;5.25;;;;;;;4.61;66.22;100897.44;5071637;27;98321;-74
2021/04/15 03:39:28;;;;;;;10.63;5.00;;;;;;;4.64;65.66;100900.03;5042879;27;97623;-74
2021/04/15 03:41:56;;;;;;;10.40;6.10;;;;;;;4.63;65.79;100906.13;5089890;27;97036;-74
2021/04/15 03:44:31;;;;;;;11.07;5.50;;;;;;;4.59;65.60;100897.44;5051946;27;100958;-73
2021/04/15 03:47:06;;;;;;;12.83;6.43;;;;;;;4.57;66.22;100901.78;5037581;27;101455;-76
2021/04/15 03:49:36;;;;;;;12.80;6.10;;;;;;;4.62;65.59;100899.16;5052675;27;96869;-76
2021/04/15 03:52:28;;;;;;;10.43;5.53;;;;;;;4.59;65.57;100900.03;5050318;27;97085;-75
2021/04/15 03:55:21;;;;;;;8.10;5.63;;;;;;;4.54;65.72;100904.41;5040072;27;101434;-74
2021/04/15 03:57:49;;;;;;;11.93;6.00;;;;;;;4.42;66.00;100906.97;5027291;27;97980;-79
2021/04/15 04:00:20;;;;;;;10.73;5.83;;;;;;;4.47;65.69;100897.44;5042908;27;97373;-74
2021/04/15 04:02:54;;;;;;;10.52;5.78;;;;;;;4.46;65.39;100906.97;5049198;27;97555;-79
2021/04/15 04:05:27;;;;;;;13.07;7.13;;;;;;;4.47;65.24;100900.91;5047566;27;101872;-74
2021/04/15 04:07:57;;;;;;;13.80;6.30;;;;;;;4.54;65.20;100904.41;5037014;27;101430;-74
2021/04/15 04:10:26;;;;;;;11.83;5.90;;;;;;;4.60;64.86;100909.59;5035667;27;97216;-73
2021/04/15 04:13:15;;;;;;;15.73;6.63;;;;;;;4.57;64.93;100901.78;5050720;27;96842;-74
2021/04/15 04:15:44;;;;;;;11.87;5.40;;;;;;;4.57;64.61;100898.31;5049225;27;101413;-74
2021/04/15 04:18:15;;;;;;;10.40;5.23;;;;;;;4.48;64.65;100899.16;5062418;27;98156;-74
2021/04/15 04:20:41;;;;;;;10.87;5.47;;;;;;;4.51;64.60;100902.66;5072631;27;97254;-74
2021/04/15 04:23:22;;;;;;;12.57;5.07;;;;;;;4.63;64.30;100906.13;5053927;27;97190;-74
2021/04/15 04:25:54;;;;;;;12.40;5.30;;;;;;;4.51;64.24;100907.00;5041865;27;101164;-80
2021/04/15 04:28:24;;;;;;;9.70;5.00;;;;;;;4.59;63.97;100902.63;5053945;27;101578;-75
2021/04/15 04:30:53;;;;;;;13.90;5.83;;;;;;;4.57;64.12;100913.91;5053792;27;96691;-79
2021/04/15 04:33:23;;;;;;;11.80;5.17;;;;;;;4.51;63.76;100902.66;5054300;27;96999;-73
2021/04/15 04:35:50;;;;;;;12.40;4.90;;;;;;;4.43;63.84;100911.31;5043080;27;101286;-79
2021/04/15 04:38:19;;;;;;;12.60;5.53;;;;;;;4.42;63.71;100902.66;5068563;27;98436;-74
2021/04/15 04:40:50;;;;;;;11.73;5.20;;;;;;;4.53;63.95;100911.31;5051117;27;97092;-74
2021/04/15 04:43:29;;;;;;;16.47;4.93;;;;;;;4.55;63.73;100911.31;5034110;27;97382;-73
2021/04/15 04:46:02;;;;;;;14.27;5.63;;;;;;;4.52;63.54;100919.13;5053056;27;100107;-74
2021/04/15 04:48:35;;;;;;;10.23;5.03;;;;;;;4.54;63.55;100909.59;5054331;27;100623;-74
2021/04/15 04:51:12;;;;;;;12.37;5.03;;;;;;;4.54;63.45;100918.25;5037809;27;97435;-74
2021/04/15 04:53:40;;;;;;;11.90;5.60;;;;;;;4.61;63.43;100913.91;5054331;27;97059;-73
2021/04/15 04:56:08;;;;;;;12.27;4.90;;;;;;;4.63;63.41;100924.34;5053523;27;97985;-74
2021/04/15 04:58:35;;;;;;;9.03;4.80;;;;;;;4.67;63.19;100923.44;5074722;27;97533;-74
2021/04/15 05:01:02;;;;;;;15.03;5.60;;;;;;;4.57;63.26;100919.09;5057462;27;97254;-73
2021/04/15 05:03:30;;;;;;;17.77;5.57;;;;;;;4.57;63.57;100922.59;5047665;27;96756;-74
2021/04/15 05:06:04;;;;;;;14.50;5.03;;;;;;;4.60;63.43;100921.72;5051023;27;101249;-75
2021/04/15 05:09:02;;;;;;;10.70;4.57;;;;;;;4.64;63.44;100915.66;5048930;27;101296;-74
2021/04/15 05:11:33;;;;;;;7.63;4.47;;;;;;;4.67;63.51;100919.09;5046154;27;97469;-74
2021/04/15 05:13:59;;;;;;;13.90;4.40;;;;;;;4.66;63.46;100920.00;5074424;27;96974;-74
2021/04/15 05:16:33;;;;;;;12.77;4.90;;;;;;;4.65;63.68;100918.22;5053877;27;101131;-73
2021/04/15 05:18:59;;;;;;;9.77;4.83;;;;;;;4.71;63.83;100915.66;5071318;27;97568;-74
2021/04/15 05:21:26;;;;;;;9.60;4.50;;;;;;;4.63;63.73;100916.53;5074426;27;97137;-73
2021/04/15 05:23:59;;;;;;;8.53;3.87;;;;;;;4.67;63.84;100915.66;5053415;27;96932;-79
2021/04/15 05:26:28;;;;;;;11.07;4.03;;;;;;;4.65;63.90;100917.38;5053922;27;101150;-74
2021/04/15 05:28:57;;;;;;;7.17;4.10;;;;;;;4.69;63.69;100906.97;5054785;27;101119;-78
2021/04/15 05:31:26;;;;;;;9.13;3.53;;;;;;;4.64;63.47;100902.66;5056321;27;97981;-74
2021/04/15 05:33:52;;;;;;;6.37;3.30;;;;;;;4.63;63.25;100917.38;5036479;27;96943;-79
2021/04/15 05:36:26;;;;;;;10.50;3.90;;;;;;;4.65;63.71;100909.56;5036399;27;101403;-73
2021/04/15 05:38:53;;;;;;;8.60;3.10;;;;;;;4.66;63.45;100912.19;5040668;27;99578;-79
2021/04/15 05:41:25;;;;;;;8.50;3.63;;;;;;;4.61;63.41;100915.66;5034931;27;97299;-73
2021/04/15 05:43:53;;;;;;;7.93;3.30;;;;;;;4.58;63.59;100908.72;5066454;27;97238;-79
2021/04/15 05:46:20;;;;;;;7.17;2.90;;;;;;;4.64;63.77;100911.31;5030591;27;100848;-74
2021/04/15 05:48:47;;;;;;;10.43;2.87;;;;;;;4.65;63.67;100910.44;5046547;27;99981;-73
2021/04/15 05:51:16;;;;;;;6.27;2.60;;;;;;;4.80;63.28;100904.38;5056024;27;96965;-73
2021/04/15 05:53:45;;;;;;;6.90;2.70;;;;;;;4.82;63.42;100905.22;5049902;27;96778;-74
2021/04/15 05:56:14;;;;;;;6.03;2.87;;;;;;;4.73;63.58;100906.09;5064439;27;97471;-74
2021/04/15 05:58:55;;;;;;;6.53;2.77;;;;;;;4.69;64.31;100906.97;5056468;27;100834;-73
2021/04/15 06:01:43;;;;;;;4.17;2.17;;;;;;;4.63;64.27;100901.78;5092016;27;97114;-74
2021/04/15 06:04:33;;;;;;;6.83;2.37;;;;;;;4.79;64.64;100900.03;5032319;27;97095;-74
2021/04/15 06:07:01;;;;;;;6.97;2.40;;;;;;;4.73;64.63;100897.44;5031488;27;101391;-74
2021/04/15 06:09:27;;;;;;;9.70;3.00;;;;;;;4.78;64.84;100900.03;5041533;27;97977;-74
2021/04/15 06:11:58;;;;;;;4.57;2.77;;;;;;;4.81;64.93;100892.22;5056003;27;97278;-81
2021/04/15 06:14:33;;;;;;;4.57;2.97;;;;;;;4.71;65.16;100899.16;5078189;27;97086;-74
2021/04/15 06:17:05;;;;;;;5.97;2.97;;;;;;;4.73;65.54;100897.44;5063659;27;97991;-74
2021/04/15 06:19:32;;;;;;;6.80;3.13;;;;;;;4.63;65.88;100896.59;5047406;27;101720;-74
2021/04/15 06:22:11;;;;;;;6.70;2.80;;;;;;;4.67;65.92;100902.66;5048705;27;97206;-80
2021/04/15 06:24:36;;;;;;;16.67;7.27;;;;;;;4.66;66.18;100893.13;5044946;27;96878;-74
2021/04/15 06:27:05;;;;;;;11.53;5.73;;;;;;;4.66;66.28;100893.97;5053070;27;100238;-75
2021/04/15 06:30:02;;;;;;;7.73;3.60;;;;;;;4.71;66.59;100893.97;5042656;27;97479;-74
2021/04/15 06:32:34;;;;;;;6.57;3.77;;;;;;;4.69;67.04;100891.38;5042950;27;97168;-74
2021/04/15 06:34:59;;;;;;;6.85;3.92;;;;;;;4.67;66.96;100882.69;5053436;27;96875;-75
2021/04/15 06:37:44;;;;;;;7.13;4.50;;;;;;;4.72;67.13;100880.97;5070289;27;101323;-74
2021/04/15 06:40:49;;;;;;;7.67;4.10;;;;;;;4.80;67.17;100877.47;5049334;27;100181;-74
2021/04/15 06:43:23;;;;;;;6.63;3.70;;;;;;;4.75;67.16;100878.38;5036439;27;97002;-76
2021/04/15 06:46:27;;;;;;;7.10;3.70;;;;;;;4.70;67.33;100874.88;5080313;27;96905;-77
2021/04/15 06:49:15;;;;;;;6.17;4.17;;;;;;;4.75;67.36;100877.50;4977323;27;100418;-75
2021/04/15 06:52:26;;;;;;;8.53;4.40;;;;;;;4.74;67.39;100874.03;5057038;27;101011;-81
2021/04/15 06:55:00;;;;;;;8.57;4.37;;;;;;;4.70;67.51;100868.84;5050664;27;96956;-77
2021/04/15 06:57:55;;;;;;;6.73;4.30;;;;;;;4.76;67.32;100876.63;5053958;27;97052;-76
2021/04/15 07:01:05;;;;;;;7.63;4.13;;;;;;;4.79;67.64;100870.56;5070002;27;98390;-80
2021/04/15 07:04:04;;;;;;;7.07;4.33;;;;;;;4.84;67.42;100871.41;4991463;28;99853;-78
2021/04/15 07:06:41;;;;;;;5.60;3.43;;;;;;;4.89;67.10;100867.94;5051708;27;97426;-77
2021/04/15 07:09:42;;;;;;;6.40;3.27;;;;;;;4.92;67.34;100877.47;5085498;27;97007;-76
2021/04/15 07:12:11;;;;;;;6.30;3.00;;;;;;;4.83;66.90;100872.25;5054929;27;101520;-73
2021/04/15 07:15:27;;;;;;;8.90;3.70;;;;;;;4.95;67.20;100875.72;5042443;27;101497;-73
2021/04/15 07:18:11;;;;;;;4.97;3.30;;;;;;;4.94;66.92;100871.38;5041874;27;96941;-73
2021/04/15 07:20:53;;;;;;;5.67;3.47;;;;;;;5.01;67.17;100867.03;5069489;27;97468;-76
2021/04/15 07:23:40;;;;;;;5.05;3.13;;;;;;;5.04;67.06;100867.03;5053499;27;98554;-74
2021/04/15 07:26:43;;;;;;;7.80;4.43;;;;;;;4.97;67.16;100865.31;5072481;27;101422;-73
2021/04/15 07:29:27;;;;;;;5.43;3.47;;;;;;;5.01;67.48;100877.47;5051127;27;97170;-75
2021/04/15 07:32:05;;;;;;;5.60;3.27;;;;;;;4.90;66.64;100864.47;5070305;27;97406;-76
2021/04/15 07:35:07;;;;;;;5.60;3.10;;;;;;;4.90;66.92;100859.25;5072439;27;98428;-76
2021/04/15 07:37:36;;;;;;;6.60;3.47;;;;;;;4.81;67.33;100861.03;5073110;27;97993;-77
2021/04/15 07:40:04;;;;;;;7.43;3.40;;;;;;;4.86;67.39;100860.16;5071501;27;96838;-77
2021/04/15 07:42:40;;;;;;;5.90;3.00;;;;;;;4.77;67.62;100860.16;5072707;27;96873;-77
2021/04/15 07:45:18;;;;;;;3.70;2.90;;;;;;;4.79;67.86;100857.53;5071764;27;101126;-76
2021/04/15 07:47:56;;;;;;;4.13;2.83;;;;;;;4.76;67.97;100866.22;5071924;27;101175;-76
2021/04/15 07:50:21;;;;;;;6.20;3.07;;;;;;;4.93;67.46;100869.66;5055294;27;97015;-76
2021/04/15 07:52:56;;;;;;;4.93;3.10;;;;;;;4.91;67.21;100860.13;5081732;27;96765;-76
2021/04/15 07:55:35;;;;;;;4.27;3.10;;;;;;;4.94;67.35;100862.72;5051723;27;101745;-76
2021/04/15 07:58:15;;;;;;;4.13;2.77;;;;;;;5.04;67.47;100858.38;5071171;27;101418;-77
2021/04/15 08:00:41;;;;;;;10.30;5.90;;;;;;;4.87;67.98;100861.88;5072237;27;97113;-77
2021/04/15 08:03:40;;;;;;;3.93;2.53;;;;;;;4.92;67.33;100865.34;5071557;27;96823;-76
2021/04/15 08:06:33;;;;;;;4.90;2.10;;;;;;;4.78;68.05;100861.03;5071844;27;98620;-76
2021/04/15 08:09:17;;;;;;;5.97;2.30;;;;;;;4.83;68.30;100860.16;5071683;27;97998;-81
2021/04/15 08:11:55;;;;;;;4.43;2.80;;;;;;;4.80;68.14;100869.66;5055186;27;96642;-76
2021/04/15 08:14:47;;;;;;;4.03;2.33;;;;;;;4.75;68.55;100869.69;5038000;27;96925;-77
2021/04/15 08:17:34;;;;;;;4.65;2.53;;;;;;;4.85;67.63;100865.34;5053937;27;101217;-77
2021/04/15 08:20:06;;;;;;;4.40;2.53;;;;;;;4.78;68.18;100861.88;5074788;27;98419;-81
2021/04/15 08:23:08;;;;;;;4.93;2.85;;;;;;;4.82;68.27;100861.00;5094681;27;96967;-76
2021/04/15 08:25:36;;;;;;;;;;;;;;;4.67;68.93;100858.44;5076216;27;97122;-77
2021/04/15 08:28:15;;;;;;;6.07;2.77;;;;;;;4.78;68.08;100861.03;5057363;27;100907;-77
2021/04/15 08:30:45;;;;;;;4.70;2.83;;;;;;;4.71;68.47;100860.16;5055298;27;101272;-75
2021/04/15 08:33:35;;;;;;;7.30;4.13;;;;;;;4.70;68.39;100856.69;5069824;27;97262;-75
2021/04/15 08:36:19;;;;;;;7.73;4.60;;;;;;;4.73;68.25;100858.41;5057869;27;97266;-81
2021/04/15 08:39:13;;;;;;;8.87;5.37;;;;;;;4.81;68.39;100864.47;5075368;27;98662;-75
2021/04/15 08:42:00;;;;;;;8.57;4.73;;;;;;;4.90;68.97;100863.59;5074777;27;101318;-77
2021/04/15 08:44:32;;;;;;;8.07;3.00;;;;;;;4.91;67.59;100858.38;5058756;27;97347;-76
2021/04/15 08:47:32;;;;;;;3.55;2.83;;;;;;;4.91;68.08;100850.56;5051180;27;98307;-82
2021/04/15 08:50:21;;;;;;;3.73;2.30;;;;;;;4.82;68.07;100849.72;5055589;27;101232;-80
2021/04/15 08:52:55;;;;;;;5.20;2.67;;;;;;;4.70;68.12;100838.47;5054039;27;101571;-75
2021/04/15 08:55:44;;;;;;;4.40;2.73;;;;;;;4.86;68.47;100851.44;5050582;27;97485;-75
2021/04/15 08:58:29;;;;;;;4.33;2.83;;;;;;;4.89;68.03;100846.28;5058112;27;96614;-75
2021/04/15 09:01:00;;;;;;;6.27;2.60;;;;;;;4.87;68.38;100841.06;5071854;27;101557;-75
2021/04/15 09:03:44;;;;;;;6.28;2.75;;;;;;;4.95;68.32;100841.03;5051528;27;101398;-76
2021/04/15 09:06:12;;;;;;;5.83;2.80;;;;;;;4.95;68.55;100835.84;5070814;27;97326;-75
2021/04/15 09:09:06;;;;;;;5.17;2.40;;;;;;;4.84;68.17;100846.25;5071360;27;97208;-76
2021/04/15 09:11:53;;;;;;;4.60;2.80;;;;;;;4.84;68.16;100845.41;5072069;27;97183;-75
2021/04/15 09:14:37;;;;;;;3.13;2.13;;;;;;;4.93;68.42;100838.44;5057608;27;101241;-75
2021/04/15 09:17:06;;;;;;;3.80;2.63;;;;;;;4.95;68.43;100846.25;5072360;27;97016;-75
2021/04/15 09:19:41;;;;;;;4.37;2.40;;;;;;;4.90;68.18;100841.03;5050899;27;97070;-75
2021/04/15 09:22:18;;;;;;;4.47;2.40;;;;;;;4.98;68.32;100846.25;5046678;27;101389;-75
2021/04/15 09:24:58;;;;;;;4.13;2.37;;;;;;;4.99;68.46;100841.00;5046647;27;101255;-75
2021/04/15 09:27:50;;;;;;;4.23;2.53;;;;;;;4.99;67.94;100840.16;5051010;27;96897;-75
2021/04/15 09:30:28;;;;;;;5.00;2.70;;;;;;;4.98;68.30;100841.03;5067251;27;97474;-76
2021/04/15 09:33:02;;;;;;;4.17;2.37;;;;;;;5.12;68.21;100841.88;5071065;27;98512;-75
2021/04/15 09:36:01;;;;;;;5.23;3.30;;;;;;;5.12;68.64;100836.66;5071497;27;98175;-76
2021/04/15 09:38:55;;;;;;;4.73;2.73;;;;;;;5.12;68.61;100838.38;5070397;27;97305;-75
2021/04/15 09:41:58;;;;;;;4.83;2.10;;;;;;;5.15;68.28;100838.38;5053832;27;97684;-75
2021/04/15 09:44:27;;;;;;;6.77;2.63;;;;;;;5.22;68.21;100837.47;5053749;27;98236;-76
2021/04/15 09:47:00;;;;;;;4.47;2.40;;;;;;;5.09;68.35;100834.06;5081896;27;97491;-75
2021/04/15 09:49:39;;;;;;;5.60;2.80;;;;;;;5.07;68.81;100834.94;5054581;27;98205;-77
2021/04/15 09:52:29;;;;;;;4.70;2.57;;;;;;;5.08;68.23;100836.66;5053231;27;97252;-75
2021/04/15 09:55:24;;;;;;;3.50;2.67;;;;;;;4.94;68.71;100823.69;5040732;27;101350;-75
2021/04/15 09:58:14;;;;;;;4.27;2.27;;;;;;;4.94;68.83;100824.53;5054215;27;101835;-75
2021/04/15 10:00:48;;;;;;;4.30;2.40;;;;;;;4.90;68.86;100828.03;5054403;27;96954;-75
2021/04/15 10:03:51;;;;;;;5.40;2.67;;;;;;;4.94;69.19;100821.06;5041348;27;97026;-75
2021/04/15 10:06:21;;;;;;;3.90;2.50;;;;;;;4.94;68.93;100819.34;5042779;27;98196;-76
2021/04/15 10:08:55;;;;;;;3.60;2.00;;;;;;;4.95;68.92;100812.44;5056879;27;97622;-76
2021/04/15 10:11:49;;;;;;;2.97;2.40;;;;;;;4.92;68.61;100812.44;5073807;27;97662;-76
2021/04/15 10:14:41;;;;;;;3.40;2.53;;;;;;;4.86;69.03;100817.63;5056140;27;97201;-76
2021/04/15 10:17:35;;;;;;;8.80;5.35;;;;;;;4.93;69.10;100822.81;5091231;27;97539;-76
2021/04/15 10:20:19;;;;;;;5.43;3.30;;;;;;;5.02;69.14;100813.25;5073412;27;98098;-83
2021/04/15 10:23:06;;;;;;;4.93;2.83;;;;;;;4.97;69.54;100808.06;5056016;27;97226;-76
2021/04/15 10:25:40;;;;;;;4.87;2.50;;;;;;;4.97;69.29;100821.97;5053279;27;96706;-76
2021/04/15 10:28:29;;;;;;;3.13;2.23;;;;;;;4.90;68.85;100816.78;5025312;27;101242;-76
2021/04/15 10:31:16;;;;;;;3.50;2.30;;;;;;;4.93;68.70;100815.00;5073728;27;101208;-75
2021/04/15 10:33:44;;;;;;;5.13;2.40;;;;;;;4.91;69.13;100808.94;5073697;27;96788;-76
2021/04/15 10:36:48;;;;;;;3.10;1.90;;;;;;;4.94;69.05;100813.28;5056200;27;96982;-76
2021/04/15 10:39:44;;;;;;;3.30;2.20;;;;;;;4.95;68.99;100804.63;5070195;27;101498;-75
2021/04/15 10:42:25;;;;;;;2.73;2.07;;;;;;;4.98;69.06;100804.59;5072388;27;97851;-77
2021/04/15 10:45:12;;;;;;;4.90;2.57;;;;;;;5.11;68.92;100802.81;5073335;27;97104;-76
2021/04/15 10:47:44;;;;;;;3.60;2.37;;;;;;;5.14;69.55;100800.19;5072512;27;98321;-77
2021/04/15 10:50:33;;;;;;;4.90;2.78;;;;;;;5.24;69.10;100806.25;5091315;27;97985;-77
2021/04/15 10:53:01;;;;;;;5.30;2.50;;;;;;;5.24;68.56;100806.25;5073151;27;97877;-83
2021/04/15 10:55:33;;;;;;;4.03;2.93;;;;;;;5.25;68.92;100794.94;5056329;27;96691;-77
2021/04/15 10:58:23;;;;;;;4.28;1.95;;;;;;;5.29;69.26;100800.13;5072875;27;97142;-83
2021/04/15 11:00:48;;;;;;;2.70;1.57;;;;;;;5.16;68.81;100793.25;5073197;27;98296;-76
2021/04/15 11:03:22;;;;;;;2.37;1.70;;;;;;;5.15;68.60;100795.00;5055806;27;98366;-76
2021/04/15 11:05:50;;;;;;;3.90;2.10;;;;;;;5.13;69.03;100794.13;5056353;27;97159;-76
2021/04/15 11:08:34;;;;;;;2.87;1.77;;;;;;;5.14;69.20;100795.84;5034753;27;97301;-76
2021/04/15 11:11:19;;;;;;;3.53;2.40;;;;;;;5.15;68.93;100792.41;5071362;27;98572;-83
2021/04/15 11:13:45;;;;;;;4.47;2.90;;;;;;;5.03;69.61;100796.75;5072461;27;98303;-76
2021/04/15 11:16:18;;;;;;;7.00;3.23;;;;;;;5.07;68.93;100793.31;5051274;27;97118;-76
2021/04/15 11:18:46;;;;;;;7.50;4.40;;;;;;;5.10;69.35;100791.53;5054273;27;96835;-76
2021/04/15 11:21:24;;;;;;;7.70;3.40;;;;;;;5.17;68.98;100793.22;5051650;27;101171;-77
2021/04/15 11:23:52;;;;;;;6.43;4.43;;;;;;;5.17;69.20;100785.44;5070107;27;97930;-76
2021/04/15 11:26:28;;;;;;;6.97;3.53;;;;;;;5.24;69.06;100790.63;5054876;27;96651;-76
2021/04/15 11:28:57;;;;;;;6.63;4.13;;;;;;;5.28;69.07;100792.34;5055766;27;97105;-76
2021/04/15 11:31:35;;;;;;;6.17;2.87;;;;;;;5.29;68.63;100794.06;5072215;27;98623;-76
2021/04/15 11:34:20;;;;;;;4.73;3.17;;;;;;;5.28;69.01;100788.00;5055010;27;100151;-83
2021/04/15 11:37:06;;;;;;;4.47;2.23;;;;;;;5.22;68.76;100788.03;5055059;27;97900;-77
2021/04/15 11:39:36;;;;;;;5.53;2.07;;;;;;;5.11;69.21;100784.59;5055178;27;96826;-77
2021/04/15 11:42:07;;;;;;;6.60;3.47;;;;;;;5.04;69.35;100778.56;5037790;27;101367;-82
2021/04/15 11:44:47;;;;;;;8.27;4.17;;;;;;;5.12;70.12;100781.09;5052897;27;101441;-77
2021/04/15 11:47:24;;;;;;;8.10;4.07;;;;;;;5.31;69.74;100779.31;5051091;27;97290;-76
2021/04/15 11:49:51;;;;;;;12.07;5.50;;;;;;;5.35;69.46;100778.41;5051806;27;96875;-77
2021/04/15 11:52:19;;;;;;;12.00;4.80;;;;;;;5.39;68.84;100780.13;5038242;27;101054;-76
2021/04/15 11:54:59;;;;;;;9.17;4.37;;;;;;;5.33;69.44;100781.03;5055397;27;101638;-76
2021/04/15 11:57:42;;;;;;;11.40;5.80;;;;;;;5.26;68.68;100775.84;5054630;27;96712;-77
2021/04/15 12:00:14;;;;;;;13.97;5.70;;;;;;;5.28;68.98;100779.31;5051203;27;96927;-77
2021/04/15 12:03:01;;;;;;;8.73;4.67;;;;;;;5.30;69.47;100775.84;5051014;27;101419;-77
2021/04/15 12:05:42;;;;;;;8.10;3.37;;;;;;;5.32;69.16;100776.66;5075796;27;98437;-80
2021/04/15 12:08:20;;;;;;;7.37;2.93;;;;;;;5.32;69.27;100774.06;5059659;27;96807;-77
2021/04/15 12:10:52;;;;;;;10.97;3.70;;;;;;;5.35;69.17;100770.59;5051915;27;96707;-76
2021/04/15 12:13:22;;;;;;;9.63;4.17;;;;;;;5.45;69.44;100767.94;5045760;27;98076;-75